sensor_id;sensor_type;location;lat;lon;timestamp;pressure;altitude;pressure_sealevel;temperature
73734;BMP280;62039;50.000;9.064;2022-07-10T00:01:00;101067.28;;;17.05
73734;BMP280;62039;50.000;9.064;2022-07-10T00:03:29;101065.97;;;17.01
73734;BMP280;62039;50.000;9.064;2022-07-10T00:05:56;101073.66;;;16.96
73734;BMP280;62039;50.000;9.064;2022-07-10T00:08:23;101065.47;;;16.91
73734;BMP280;62039;50.000;9.064;2022-07-10T00:10:49;101064.97;;;16.87
73734;BMP280;62039;50.000;9.064;2022-07-10T00:13:16;101063.72;;;16.83
73734;BMP280;62039;50.000;9.064;2022-07-10T00:15:43;101067.34;;;16.82
73734;BMP280;62039;50.000;9.064;2022-07-10T00:18:10;101059.59;;;16.80
73734;BMP280;62039;50.000;9.064;2022-07-10T00:20:38;101054.31;;;16.80
73734;BMP280;62039;50.000;9.064;2022-07-10T00:23:05;101058.97;;;16.78
73734;BMP280;62039;50.000;9.064;2022-07-10T00:25:32;101066.88;;;16.78
73734;BMP280;62039;50.000;9.064;2022-07-10T00:27:59;101067.91;;;16.77
73734;BMP280;62039;50.000;9.064;2022-07-10T00:30:25;101071.53;;;16.76
73734;BMP280;62039;50.000;9.064;2022-07-10T00:32:52;101069.91;;;16.75
73734;BMP280;62039;50.000;9.064;2022-07-10T00:35:19;101070.91;;;16.74
73734;BMP280;62039;50.000;9.064;2022-07-10T00:37:47;101070.91;;;16.74
73734;BMP280;62039;50.000;9.064;2022-07-10T00:40:14;101071.28;;;16.71
73734;BMP280;62039;50.000;9.064;2022-07-10T00:42:41;101068.00;;;16.69
73734;BMP280;62039;50.000;9.064;2022-07-10T00:45:09;101071.63;;;16.68
73734;BMP280;62039;50.000;9.064;2022-07-10T00:47:35;101071.81;;;16.67
73734;BMP280;62039;50.000;9.064;2022-07-10T00:50:03;101078.06;;;16.66
73734;BMP280;62039;50.000;9.064;2022-07-10T00:52:30;101074.81;;;16.64
73734;BMP280;62039;50.000;9.064;2022-07-10T00:54:58;101076.63;;;16.63
73734;BMP280;62039;50.000;9.064;2022-07-10T00:57:25;101068.25;;;16.60
73734;BMP280;62039;50.000;9.064;2022-07-10T00:59:52;101081.66;;;16.58
73734;BMP280;62039;50.000;9.064;2022-07-10T01:02:19;101082.00;;;16.55
73734;BMP280;62039;50.000;9.064;2022-07-10T01:04:46;101091.91;;;16.53
73734;BMP280;62039;50.000;9.064;2022-07-10T01:07:13;101086.78;;;16.52
73734;BMP280;62039;50.000;9.064;2022-07-10T01:09:40;101081.09;;;16.48
73734;BMP280;62039;50.000;9.064;2022-07-10T01:12:10;101081.44;;;16.45
73734;BMP280;62039;50.000;9.064;2022-07-10T01:14:39;101078.53;;;16.40
73734;BMP280;62039;50.000;9.064;2022-07-10T01:17:06;101080.88;;;16.35
73734;BMP280;62039;50.000;9.064;2022-07-10T01:19:34;101082.06;;;16.32
73734;BMP280;62039;50.000;9.064;2022-07-10T01:22:02;101078.16;;;16.28
73734;BMP280;62039;50.000;9.064;2022-07-10T01:24:29;101073.22;;;16.25
73734;BMP280;62039;50.000;9.064;2022-07-10T01:26:56;101080.69;;;16.22
73734;BMP280;62039;50.000;9.064;2022-07-10T01:29:23;101082.66;;;16.20
73734;BMP280;62039;50.000;9.064;2022-07-10T01:31:50;101082.03;;;16.18
73734;BMP280;62039;50.000;9.064;2022-07-10T01:34:23;101085.66;;;16.17
73734;BMP280;62039;50.000;9.064;2022-07-10T01:36:50;101074.47;;;16.15
73734;BMP280;62039;50.000;9.064;2022-07-10T01:39:18;101085.00;;;16.15
73734;BMP280;62039;50.000;9.064;2022-07-10T01:41:45;101092.25;;;16.13
73734;BMP280;62039;50.000;9.064;2022-07-10T01:44:12;101099.53;;;16.11
73734;BMP280;62039;50.000;9.064;2022-07-10T01:46:43;101090.97;;;16.08
73734;BMP280;62039;50.000;9.064;2022-07-10T01:49:10;101100.22;;;16.04
73734;BMP280;62039;50.000;9.064;2022-07-10T01:51:37;101097.97;;;16.01
73734;BMP280;62039;50.000;9.064;2022-07-10T01:54:04;101105.38;;;15.98
73734;BMP280;62039;50.000;9.064;2022-07-10T01:56:32;101094.06;;;15.97
73734;BMP280;62039;50.000;9.064;2022-07-10T01:58:59;101104.94;;;15.94
73734;BMP280;62039;50.000;9.064;2022-07-10T02:01:26;101101.66;;;15.92
73734;BMP280;62039;50.000;9.064;2022-07-10T02:03:53;101092.31;;;15.90
73734;BMP280;62039;50.000;9.064;2022-07-10T02:06:20;101102.19;;;15.88
73734;BMP280;62039;50.000;9.064;2022-07-10T02:08:46;101104.34;;;15.84
73734;BMP280;62039;50.000;9.064;2022-07-10T02:11:13;101104.88;;;15.80
73734;BMP280;62039;50.000;9.064;2022-07-10T02:13:41;101103.78;;;15.74
73734;BMP280;62039;50.000;9.064;2022-07-10T02:16:08;101107.75;;;15.70
73734;BMP280;62039;50.000;9.064;2022-07-10T02:18:35;101113.38;;;15.67
73734;BMP280;62039;50.000;9.064;2022-07-10T02:21:03;101112.09;;;15.63
73734;BMP280;62039;50.000;9.064;2022-07-10T02:23:30;101109.13;;;15.58
73734;BMP280;62039;50.000;9.064;2022-07-10T02:25:57;101114.94;;;15.53
73734;BMP280;62039;50.000;9.064;2022-07-10T02:28:23;101106.88;;;15.47
73734;BMP280;62039;50.000;9.064;2022-07-10T02:30:52;101097.84;;;15.41
73734;BMP280;62039;50.000;9.064;2022-07-10T02:33:18;101103.00;;;15.35
73734;BMP280;62039;50.000;9.064;2022-07-10T02:35:45;101109.56;;;15.30
73734;BMP280;62039;50.000;9.064;2022-07-10T02:38:12;101110.94;;;15.26
73734;BMP280;62039;50.000;9.064;2022-07-10T02:40:39;101108.81;;;15.22
73734;BMP280;62039;50.000;9.064;2022-07-10T02:43:06;101110.34;;;15.16
73734;BMP280;62039;50.000;9.064;2022-07-10T02:45:32;101105.41;;;15.13
73734;BMP280;62039;50.000;9.064;2022-07-10T02:48:01;101103.28;;;15.09
73734;BMP280;62039;50.000;9.064;2022-07-10T02:50:27;101099.84;;;15.08
73734;BMP280;62039;50.000;9.064;2022-07-10T02:52:54;101113.97;;;15.07
73734;BMP280;62039;50.000;9.064;2022-07-10T02:55:21;101107.72;;;15.08
73734;BMP280;62039;50.000;9.064;2022-07-10T02:57:48;101116.59;;;15.07
73734;BMP280;62039;50.000;9.064;2022-07-10T03:00:15;101113.16;;;15.07
73734;BMP280;62039;50.000;9.064;2022-07-10T03:02:41;101123.03;;;15.05
73734;BMP280;62039;50.000;9.064;2022-07-10T03:05:10;101122.56;;;15.01
73734;BMP280;62039;50.000;9.064;2022-07-10T03:07:37;101126.84;;;14.94
73734;BMP280;62039;50.000;9.064;2022-07-10T03:10:04;101131.16;;;14.87
73734;BMP280;62039;50.000;9.064;2022-07-10T03:12:31;101133.78;;;14.79
73734;BMP280;62039;50.000;9.064;2022-07-10T03:14:58;101130.16;;;14.72
73734;BMP280;62039;50.000;9.064;2022-07-10T03:17:25;101133.47;;;14.66
73734;BMP280;62039;50.000;9.064;2022-07-10T03:19:52;101132.16;;;14.62
73734;BMP280;62039;50.000;9.064;2022-07-10T03:22:20;101127.06;;;14.60
73734;BMP280;62039;50.000;9.064;2022-07-10T03:24:47;101129.19;;;14.57
73734;BMP280;62039;50.000;9.064;2022-07-10T03:27:14;101135.78;;;14.52
73734;BMP280;62039;50.000;9.064;2022-07-10T03:29:41;101133.84;;;14.46
73734;BMP280;62039;50.000;9.064;2022-07-10T03:32:09;101129.25;;;14.40
73734;BMP280;62039;50.000;9.064;2022-07-10T03:34:35;101134.34;;;14.34
73734;BMP280;62039;50.000;9.064;2022-07-10T03:37:02;101132.19;;;14.29
73734;BMP280;62039;50.000;9.064;2022-07-10T03:39:31;101130.22;;;14.23
73734;BMP280;62039;50.000;9.064;2022-07-10T03:41:58;101138.75;;;14.17
73734;BMP280;62039;50.000;9.064;2022-07-10T03:44:25;101139.41;;;14.11
73734;BMP280;62039;50.000;9.064;2022-07-10T03:46:51;101147.81;;;14.06
73734;BMP280;62039;50.000;9.064;2022-07-10T03:49:18;101137.44;;;14.05
73734;BMP280;62039;50.000;9.064;2022-07-10T03:51:45;101142.69;;;14.05
73734;BMP280;62039;50.000;9.064;2022-07-10T03:54:12;101142.53;;;14.06
73734;BMP280;62039;50.000;9.064;2022-07-10T03:56:40;101143.22;;;14.08
73734;BMP280;62039;50.000;9.064;2022-07-10T03:59:07;101145.84;;;14.08
73734;BMP280;62039;50.000;9.064;2022-07-10T04:01:34;101150.28;;;14.08
73734;BMP280;62039;50.000;9.064;2022-07-10T04:04:01;101136.31;;;14.07
73734;BMP280;62039;50.000;9.064;2022-07-10T04:06:28;101145.66;;;14.10
73734;BMP280;62039;50.000;9.064;2022-07-10T04:08:55;101154.88;;;14.14
73734;BMP280;62039;50.000;9.064;2022-07-10T04:11:22;101153.53;;;14.18
73734;BMP280;62039;50.000;9.064;2022-07-10T04:13:50;101152.25;;;14.22
73734;BMP280;62039;50.000;9.064;2022-07-10T04:16:17;101145.66;;;14.26
73734;BMP280;62039;50.000;9.064;2022-07-10T04:18:44;101134.81;;;14.29
73734;BMP280;62039;50.000;9.064;2022-07-10T04:21:11;101142.22;;;14.34
73734;BMP280;62039;50.000;9.064;2022-07-10T04:23:37;101141.72;;;14.38
73734;BMP280;62039;50.000;9.064;2022-07-10T04:26:04;101147.47;;;14.42
73734;BMP280;62039;50.000;9.064;2022-07-10T04:28:31;101158.31;;;14.47
73734;BMP280;62039;50.000;9.064;2022-07-10T04:30:59;101157.81;;;14.51
73734;BMP280;62039;50.000;9.064;2022-07-10T04:33:26;101158.94;;;14.57
73734;BMP280;62039;50.000;9.064;2022-07-10T04:35:53;101158.47;;;14.62
73734;BMP280;62039;50.000;9.064;2022-07-10T04:38:20;101162.22;;;14.67
73734;BMP280;62039;50.000;9.064;2022-07-10T04:40:47;101159.09;;;14.72
73734;BMP280;62039;50.000;9.064;2022-07-10T04:43:13;101166.34;;;14.78
73734;BMP280;62039;50.000;9.064;2022-07-10T04:45:40;101170.94;;;14.84
73734;BMP280;62039;50.000;9.064;2022-07-10T04:48:08;101176.53;;;14.89
73734;BMP280;62039;50.000;9.064;2022-07-10T04:50:35;101181.13;;;14.95
73734;BMP280;62039;50.000;9.064;2022-07-10T04:53:02;101174.53;;;14.99
73734;BMP280;62039;50.000;9.064;2022-07-10T04:55:29;101180.09;;;15.04
73734;BMP280;62039;50.000;9.064;2022-07-10T04:57:56;101175.31;;;15.08
73734;BMP280;62039;50.000;9.064;2022-07-10T05:00:22;101176.44;;;15.13
73734;BMP280;62039;50.000;9.064;2022-07-10T05:02:49;101177.13;;;15.15
73734;BMP280;62039;50.000;9.064;2022-07-10T05:05:17;101179.22;;;15.20
73734;BMP280;62039;50.000;9.064;2022-07-10T05:07:44;101179.88;;;15.22
73734;BMP280;62039;50.000;9.064;2022-07-10T05:10:11;101184.63;;;15.26
73734;BMP280;62039;50.000;9.064;2022-07-10T05:12:38;101174.75;;;15.28
73734;BMP280;62039;50.000;9.064;2022-07-10T05:15:06;101178.69;;;15.33
73734;BMP280;62039;50.000;9.064;2022-07-10T05:17:33;101184.44;;;15.36
73734;BMP280;62039;50.000;9.064;2022-07-10T05:20:00;101184.25;;;15.38
73734;BMP280;62039;50.000;9.064;2022-07-10T05:22:28;101185.72;;;15.40
73734;BMP280;62039;50.000;9.064;2022-07-10T05:24:55;101184.56;;;15.43
73734;BMP280;62039;50.000;9.064;2022-07-10T05:27:21;101189.47;;;15.46
73734;BMP280;62039;50.000;9.064;2022-07-10T05:29:48;101187.53;;;15.48
73734;BMP280;62039;50.000;9.064;2022-07-10T05:32:15;101185.56;;;15.50
73734;BMP280;62039;50.000;9.064;2022-07-10T05:34:42;101183.56;;;15.52
73734;BMP280;62039;50.000;9.064;2022-07-10T05:37:08;101192.13;;;15.54
73734;BMP280;62039;50.000;9.064;2022-07-10T05:39:37;101197.06;;;15.57
73734;BMP280;62039;50.000;9.064;2022-07-10T05:42:04;101200.16;;;15.60
73734;BMP280;62039;50.000;9.064;2022-07-10T05:44:32;101189.09;;;15.65
73734;BMP280;62039;50.000;9.064;2022-07-10T05:46:59;101190.03;;;15.72
73734;BMP280;62039;50.000;9.064;2022-07-10T05:49:26;101192.63;;;15.80
73734;BMP280;62039;50.000;9.064;2022-07-10T05:51:53;101193.25;;;15.90
73734;BMP280;62039;50.000;9.064;2022-07-10T05:54:20;101194.97;;;15.98
73734;BMP280;62039;50.000;9.064;2022-07-10T05:56:48;101191.31;;;16.07
73734;BMP280;62039;50.000;9.064;2022-07-10T05:59:15;101200.97;;;16.15
73734;BMP280;62039;50.000;9.064;2022-07-10T06:01:42;101201.13;;;16.21
73734;BMP280;62039;50.000;9.064;2022-07-10T06:04:08;101201.88;;;16.30
73734;BMP280;62039;50.000;9.064;2022-07-10T06:06:35;101201.84;;;16.38
73734;BMP280;62039;50.000;9.064;2022-07-10T06:09:02;101202.56;;;16.46
73734;BMP280;62039;50.000;9.064;2022-07-10T06:11:29;101201.69;;;16.54
73734;BMP280;62039;50.000;9.064;2022-07-10T06:13:57;101200.78;;;16.62
73734;BMP280;62039;50.000;9.064;2022-07-10T06:16:25;101201.88;;;16.67
73734;BMP280;62039;50.000;9.064;2022-07-10T06:18:52;101194.25;;;16.72
73734;BMP280;62039;50.000;9.064;2022-07-10T06:21:18;101195.38;;;16.78
73734;BMP280;62039;50.000;9.064;2022-07-10T06:23:45;101195.81;;;16.81
73734;BMP280;62039;50.000;9.064;2022-07-10T06:26:12;101194.81;;;16.82
73734;BMP280;62039;50.000;9.064;2022-07-10T06:28:39;101186.91;;;16.82
73734;BMP280;62039;50.000;9.064;2022-07-10T06:31:08;101193.44;;;16.86
73734;BMP280;62039;50.000;9.064;2022-07-10T06:33:35;101193.78;;;16.92
73734;BMP280;62039;50.000;9.064;2022-07-10T06:36:02;101188.59;;;16.98
73734;BMP280;62039;50.000;9.064;2022-07-10T06:38:29;101197.22;;;17.07
73734;BMP280;62039;50.000;9.064;2022-07-10T06:40:55;101183.94;;;17.15
73734;BMP280;62039;50.000;9.064;2022-07-10T06:43:22;101186.84;;;17.20
73734;BMP280;62039;50.000;9.064;2022-07-10T06:45:49;101185.31;;;17.25
73734;BMP280;62039;50.000;9.064;2022-07-10T06:48:18;101191.94;;;17.36
73734;BMP280;62039;50.000;9.064;2022-07-10T06:50:45;101201.03;;;17.48
73734;BMP280;62039;50.000;9.064;2022-07-10T06:53:12;101194.28;;;17.60
73734;BMP280;62039;50.000;9.064;2022-07-10T06:55:38;101187.53;;;17.73
73734;BMP280;62039;50.000;9.064;2022-07-10T06:58:05;101191.31;;;17.85
73734;BMP280;62039;50.000;9.064;2022-07-10T07:00:32;101206.84;;;17.94
73734;BMP280;62039;50.000;9.064;2022-07-10T07:02:59;101194.97;;;18.05
73734;BMP280;62039;50.000;9.064;2022-07-10T07:05:27;101190.63;;;18.19
73734;BMP280;62039;50.000;9.064;2022-07-10T07:07:54;101199.09;;;18.29
73734;BMP280;62039;50.000;9.064;2022-07-10T07:10:21;101191.44;;;18.40
73734;BMP280;62039;50.000;9.064;2022-07-10T07:12:48;101199.72;;;18.52
73734;BMP280;62039;50.000;9.064;2022-07-10T07:15:14;101195.88;;;18.61
73734;BMP280;62039;50.000;9.064;2022-07-10T07:17:41;101195.56;;;18.71
73734;BMP280;62039;50.000;9.064;2022-07-10T07:20:09;101190.94;;;18.79
73734;BMP280;62039;50.000;9.064;2022-07-10T07:22:37;101183.50;;;18.90
73734;BMP280;62039;50.000;9.064;2022-07-10T07:25:05;101184.97;;;18.99
73734;BMP280;62039;50.000;9.064;2022-07-10T07:27:33;101176.66;;;19.08
73734;BMP280;62039;50.000;9.064;2022-07-10T07:30:02;101180.16;;;19.15
73734;BMP280;62039;50.000;9.064;2022-07-10T07:32:29;101178.16;;;19.17
73734;BMP280;62039;50.000;9.064;2022-07-10T07:34:56;101183.66;;;19.23
73734;BMP280;62039;50.000;9.064;2022-07-10T07:37:23;101186.34;;;19.29
73734;BMP280;62039;50.000;9.064;2022-07-10T07:39:51;101185.38;;;19.37
73734;BMP280;62039;50.000;9.064;2022-07-10T07:42:18;101181.72;;;19.44
73734;BMP280;62039;50.000;9.064;2022-07-10T07:44:44;101182.75;;;19.50
73734;BMP280;62039;50.000;9.064;2022-07-10T07:47:11;101180.34;;;19.55
73734;BMP280;62039;50.000;9.064;2022-07-10T07:49:38;101185.28;;;19.58
73734;BMP280;62039;50.000;9.064;2022-07-10T07:52:05;101184.88;;;19.54
73734;BMP280;62039;50.000;9.064;2022-07-10T07:54:32;101184.38;;;19.44
73734;BMP280;62039;50.000;9.064;2022-07-10T07:57:00;101177.81;;;19.34
73734;BMP280;62039;50.000;9.064;2022-07-10T07:59:27;101183.88;;;19.28
73734;BMP280;62039;50.000;9.064;2022-07-10T08:01:54;101177.34;;;19.24
73734;BMP280;62039;50.000;9.064;2022-07-10T08:04:20;101179.38;;;19.21
73734;BMP280;62039;50.000;9.064;2022-07-10T08:06:47;101177.78;;;19.20
73734;BMP280;62039;50.000;9.064;2022-07-10T08:09:14;101175.69;;;19.16
73734;BMP280;62039;50.000;9.064;2022-07-10T08:11:41;101177.94;;;19.12
73734;BMP280;62039;50.000;9.064;2022-07-10T08:14:09;101183.41;;;19.11
73734;BMP280;62039;50.000;9.064;2022-07-10T08:16:36;101183.59;;;19.09
73734;BMP280;62039;50.000;9.064;2022-07-10T08:19:03;101178.31;;;19.09
73734;BMP280;62039;50.000;9.064;2022-07-10T08:21:30;101180.34;;;19.07
73734;BMP280;62039;50.000;9.064;2022-07-10T08:23:57;101175.63;;;19.03
73734;BMP280;62039;50.000;9.064;2022-07-10T08:26:24;101184.97;;;18.99
73734;BMP280;62039;50.000;9.064;2022-07-10T08:28:51;101186.19;;;18.96
73734;BMP280;62039;50.000;9.064;2022-07-10T08:31:19;101182.91;;;18.94
73734;BMP280;62039;50.000;9.064;2022-07-10T08:33:46;101174.28;;;18.86
73734;BMP280;62039;50.000;9.064;2022-07-10T08:36:12;101171.78;;;18.77
73734;BMP280;62039;50.000;9.064;2022-07-10T08:38:59;101181.94;;;18.74
73734;BMP280;62039;50.000;9.064;2022-07-10T08:41:26;101182.97;;;18.73
73734;BMP280;62039;50.000;9.064;2022-07-10T08:43:53;101185.63;;;18.73
73734;BMP280;62039;50.000;9.064;2022-07-10T08:46:21;101193.16;;;18.76
73734;BMP280;62039;50.000;9.064;2022-07-10T08:48:52;101183.56;;;18.75
73734;BMP280;62039;50.000;9.064;2022-07-10T08:51:24;101186.38;;;18.67
73734;BMP280;62039;50.000;9.064;2022-07-10T08:53:59;101179.41;;;18.59
73734;BMP280;62039;50.000;9.064;2022-07-10T08:56:27;101189.16;;;18.59
73734;BMP280;62039;50.000;9.064;2022-07-10T08:58:54;101184.69;;;18.59
73734;BMP280;62039;50.000;9.064;2022-07-10T09:01:22;101180.22;;;18.60
73734;BMP280;62039;50.000;9.064;2022-07-10T09:03:49;101193.06;;;18.63
73734;BMP280;62039;50.000;9.064;2022-07-10T09:06:16;101180.47;;;18.65
73734;BMP280;62039;50.000;9.064;2022-07-10T09:08:58;101174.34;;;18.64
73734;BMP280;62039;50.000;9.064;2022-07-10T09:11:25;101185.56;;;18.66
73734;BMP280;62039;50.000;9.064;2022-07-10T09:13:52;101183.34;;;18.70
73734;BMP280;62039;50.000;9.064;2022-07-10T09:16:23;101178.28;;;18.75
73734;BMP280;62039;50.000;9.064;2022-07-10T09:18:50;101179.53;;;18.79
73734;BMP280;62039;50.000;9.064;2022-07-10T09:21:17;101183.38;;;18.76
73734;BMP280;62039;50.000;9.064;2022-07-10T09:23:44;101187.00;;;18.69
73734;BMP280;62039;50.000;9.064;2022-07-10T09:26:10;101177.81;;;18.65
73734;BMP280;62039;50.000;9.064;2022-07-10T09:28:37;101188.81;;;18.68
73734;BMP280;62039;50.000;9.064;2022-07-10T09:31:05;101186.22;;;18.75
73734;BMP280;62039;50.000;9.064;2022-07-10T09:33:33;101186.06;;;18.83
73734;BMP280;62039;50.000;9.064;2022-07-10T09:36:02;101187.41;;;18.94
73734;BMP280;62039;50.000;9.064;2022-07-10T09:38:48;101177.91;;;19.06
73734;BMP280;62039;50.000;9.064;2022-07-10T09:41:15;101175.50;;;19.17
73734;BMP280;62039;50.000;9.064;2022-07-10T09:43:43;101187.97;;;19.30
73734;BMP280;62039;50.000;9.064;2022-07-10T09:46:10;101193.75;;;19.40
73734;BMP280;62039;50.000;9.064;2022-07-10T09:48:38;101185.81;;;19.47
73734;BMP280;62039;50.000;9.064;2022-07-10T09:51:07;101183.00;;;19.55
73734;BMP280;62039;50.000;9.064;2022-07-10T09:53:37;101174.50;;;19.66
73734;BMP280;62039;50.000;9.064;2022-07-10T09:56:06;101179.84;;;19.79
73734;BMP280;62039;50.000;9.064;2022-07-10T09:58:33;101170.47;;;19.90
73734;BMP280;62039;50.000;9.064;2022-07-10T10:01:02;101166.19;;;20.02
73734;BMP280;62039;50.000;9.064;2022-07-10T10:03:33;101162.53;;;20.10
73734;BMP280;62039;50.000;9.064;2022-07-10T10:06:07;101171.91;;;20.12
73734;BMP280;62039;50.000;9.064;2022-07-10T10:08:44;101164.38;;;20.16
73734;BMP280;62039;50.000;9.064;2022-07-10T10:11:16;101157.69;;;20.20
73734;BMP280;62039;50.000;9.064;2022-07-10T10:13:44;101152.38;;;20.26
73734;BMP280;62039;50.000;9.064;2022-07-10T10:16:12;101145.63;;;20.37
73734;BMP280;62039;50.000;9.064;2022-07-10T10:18:40;101145.00;;;20.48
73734;BMP280;62039;50.000;9.064;2022-07-10T10:21:09;101128.66;;;20.58
73734;BMP280;62039;50.000;9.064;2022-07-10T10:23:36;101134.38;;;20.61
73734;BMP280;62039;50.000;9.064;2022-07-10T10:26:03;101141.09;;;20.64
73734;BMP280;62039;50.000;9.064;2022-07-10T10:28:33;101135.19;;;20.68
73734;BMP280;62039;50.000;9.064;2022-07-10T10:31:00;101132.91;;;20.79
73734;BMP280;62039;50.000;9.064;2022-07-10T10:33:42;101133.06;;;20.97
73734;BMP280;62039;50.000;9.064;2022-07-10T10:36:12;101123.19;;;21.17
73734;BMP280;62039;50.000;9.064;2022-07-10T10:39:02;101126.78;;;21.42
73734;BMP280;62039;50.000;9.064;2022-07-10T10:41:32;101126.38;;;21.70
73734;BMP280;62039;50.000;9.064;2022-07-10T10:44:25;101121.28;;;22.00
73734;BMP280;62039;50.000;9.064;2022-07-10T10:46:57;101125.38;;;22.27
73734;BMP280;62039;50.000;9.064;2022-07-10T10:49:24;101113.50;;;22.48
73734;BMP280;62039;50.000;9.064;2022-07-10T10:52:00;101109.75;;;22.56
73734;BMP280;62039;50.000;9.064;2022-07-10T10:54:28;101114.63;;;22.59
73734;BMP280;62039;50.000;9.064;2022-07-10T10:57:19;101109.56;;;22.57
73734;BMP280;62039;50.000;9.064;2022-07-10T10:59:46;101111.31;;;22.63
73734;BMP280;62039;50.000;9.064;2022-07-10T11:02:25;101118.44;;;22.69
73734;BMP280;62039;50.000;9.064;2022-07-10T11:08:00;101109.09;;;22.60
73734;BMP280;62039;50.000;9.064;2022-07-10T11:10:28;101107.09;;;22.56
73734;BMP280;62039;50.000;9.064;2022-07-10T11:12:58;101109.97;;;22.54
73734;BMP280;62039;50.000;9.064;2022-07-10T11:15:26;101114.06;;;22.57
73734;BMP280;62039;50.000;9.064;2022-07-10T11:17:53;101109.69;;;22.62
73734;BMP280;62039;50.000;9.064;2022-07-10T11:20:20;101110.66;;;22.68
73734;BMP280;62039;50.000;9.064;2022-07-10T11:22:55;101099.91;;;22.75
73734;BMP280;62039;50.000;9.064;2022-07-10T11:25:36;101106.81;;;22.82
73734;BMP280;62039;50.000;9.064;2022-07-10T11:28:06;101108.94;;;22.92
73734;BMP280;62039;50.000;9.064;2022-07-10T11:30:43;101102.88;;;23.03
73734;BMP280;62039;50.000;9.064;2022-07-10T11:33:11;101100.28;;;23.15
73734;BMP280;62039;50.000;9.064;2022-07-10T11:35:38;101093.50;;;23.30
73734;BMP280;62039;50.000;9.064;2022-07-10T11:38:05;101084.63;;;23.48
73734;BMP280;62039;50.000;9.064;2022-07-10T11:40:37;101084.03;;;23.64
73734;BMP280;62039;50.000;9.064;2022-07-10T11:43:04;101087.84;;;23.80
73734;BMP280;62039;50.000;9.064;2022-07-10T11:45:32;101087.19;;;23.96
73734;BMP280;62039;50.000;9.064;2022-07-10T11:47:59;101086.16;;;24.09
73734;BMP280;62039;50.000;9.064;2022-07-10T11:50:26;101075.25;;;24.22
73734;BMP280;62039;50.000;9.064;2022-07-10T11:52:54;101068.41;;;24.38
73734;BMP280;62039;50.000;9.064;2022-07-10T11:55:22;101071.41;;;24.53
73734;BMP280;62039;50.000;9.064;2022-07-10T11:57:51;101070.09;;;24.67
73734;BMP280;62039;50.000;9.064;2022-07-10T12:00:21;101059.63;;;24.77
73734;BMP280;62039;50.000;9.064;2022-07-10T12:02:49;101063.31;;;24.88
73734;BMP280;62039;50.000;9.064;2022-07-10T12:05:30;101060.63;;;24.99
73734;BMP280;62039;50.000;9.064;2022-07-10T12:07:57;101062.06;;;25.07
73734;BMP280;62039;50.000;9.064;2022-07-10T12:10:26;101058.69;;;25.12
73734;BMP280;62039;50.000;9.064;2022-07-10T12:13:04;101067.03;;;25.15
73734;BMP280;62039;50.000;9.064;2022-07-10T12:15:33;101069.47;;;25.17
73734;BMP280;62039;50.000;9.064;2022-07-10T12:18:00;101065.56;;;25.19
73734;BMP280;62039;50.000;9.064;2022-07-10T12:20:27;101065.88;;;25.23
73734;BMP280;62039;50.000;9.064;2022-07-10T12:22:54;101068.31;;;25.24
73734;BMP280;62039;50.000;9.064;2022-07-10T12:25:21;101069.84;;;25.20
73734;BMP280;62039;50.000;9.064;2022-07-10T12:27:49;101074.00;;;25.16
73734;BMP280;62039;50.000;9.064;2022-07-10T12:30:22;101067.91;;;25.04
73734;BMP280;62039;50.000;9.064;2022-07-10T12:32:49;101059.94;;;24.92
73734;BMP280;62039;50.000;9.064;2022-07-10T12:35:16;101063.56;;;24.86
73734;BMP280;62039;50.000;9.064;2022-07-10T12:37:49;101055.28;;;24.88
73734;BMP280;62039;50.000;9.064;2022-07-10T12:40:31;101052.16;;;24.91
73734;BMP280;62039;50.000;9.064;2022-07-10T12:43:01;101053.06;;;24.96
73734;BMP280;62039;50.000;9.064;2022-07-10T12:45:29;101051.28;;;25.02
73734;BMP280;62039;50.000;9.064;2022-07-10T12:47:56;101059.06;;;25.03
73734;BMP280;62039;50.000;9.064;2022-07-10T12:50:23;101055.59;;;25.03
73734;BMP280;62039;50.000;9.064;2022-07-10T12:53:06;101048.63;;;25.02
73734;BMP280;62039;50.000;9.064;2022-07-10T12:55:37;101042.56;;;25.07
73734;BMP280;62039;50.000;9.064;2022-07-10T12:58:06;101049.03;;;25.11
73734;BMP280;62039;50.000;9.064;2022-07-10T13:00:35;101047.84;;;25.18
73734;BMP280;62039;50.000;9.064;2022-07-10T13:03:04;101047.38;;;25.21
73734;BMP280;62039;50.000;9.064;2022-07-10T13:05:33;101050.16;;;25.26
73734;BMP280;62039;50.000;9.064;2022-07-10T13:08:08;101039.78;;;25.30
73734;BMP280;62039;50.000;9.064;2022-07-10T13:10:35;101049.75;;;25.34
73734;BMP280;62039;50.000;9.064;2022-07-10T13:13:02;101040.78;;;25.40
73734;BMP280;62039;50.000;9.064;2022-07-10T13:15:29;101040.88;;;25.46
73734;BMP280;62039;50.000;9.064;2022-07-10T13:17:57;101037.00;;;25.53
73734;BMP280;62039;50.000;9.064;2022-07-10T13:20:24;101032.53;;;25.59
73734;BMP280;62039;50.000;9.064;2022-07-10T13:22:51;101027.09;;;25.54
73734;BMP280;62039;50.000;9.064;2022-07-10T13:25:18;101033.91;;;25.45
73734;BMP280;62039;50.000;9.064;2022-07-10T13:27:45;101034.28;;;25.36
73734;BMP280;62039;50.000;9.064;2022-07-10T13:30:11;101032.50;;;25.25
73734;BMP280;62039;50.000;9.064;2022-07-10T13:32:38;101036.16;;;25.19
73734;BMP280;62039;50.000;9.064;2022-07-10T13:35:07;101029.59;;;25.15
73734;BMP280;62039;50.000;9.064;2022-07-10T13:37:34;101043.94;;;25.09
73734;BMP280;62039;50.000;9.064;2022-07-10T13:40:01;101030.00;;;25.07
73734;BMP280;62039;50.000;9.064;2022-07-10T13:42:28;101029.53;;;25.10
73734;BMP280;62039;50.000;9.064;2022-07-10T13:44:55;101038.59;;;25.09
73734;BMP280;62039;50.000;9.064;2022-07-10T13:47:22;101042.13;;;24.98
73734;BMP280;62039;50.000;9.064;2022-07-10T13:49:48;101051.13;;;24.80
73734;BMP280;62039;50.000;9.064;2022-07-10T13:52:17;101044.78;;;24.70
73734;BMP280;62039;50.000;9.064;2022-07-10T13:54:44;101042.94;;;24.58
73734;BMP280;62039;50.000;9.064;2022-07-10T13:57:10;101047.38;;;24.53
73734;BMP280;62039;50.000;9.064;2022-07-10T13:59:38;101045.06;;;24.45
73734;BMP280;62039;50.000;9.064;2022-07-10T14:02:04;101040.31;;;24.35
73734;BMP280;62039;50.000;9.064;2022-07-10T14:04:31;101042.28;;;24.28